Tiempo atmosférico en la estación meteorológica de Tomelloso, Ciudad Real (662 m.)



Fecha
DESCASC
Temp. máxima en grados centígrados (hora)
DESCASC
Temp. mínima en grados centígrados (hora)
DESCASC
Temp. media en grados centígrados
DESCASC
Racha de viento máxima en m/sg (hora)
DESCASC
Velocidad máxima media en intervalos de 10 minutos(hora)
DESCASC
Precipitaciones diarias en mm
DESCASC
Precipitaciones de 00:00 a 06:00 en mm
DESCASC
Precipitaciones de 06:00 a 12:00 en mm
DESCASC
Precipitaciones de 12:00 a 18:00 en mm
DESCASC
Precipitaciones de 18:00 a 24:00 en mm
DESCASC
20-09-2019 26.1 (15:50) 16.3 (00:00) 21.2 -- (--) -- (--) 3.8 0 0 0 3.8
21-09-2019 24.2 (17:00) 15.6 (00:00) 19.9 -- (--) -- (--) 1.8 1.8 0 0 0
03-10-2019 27.2 (17:50) 9 (00:00) 18.1 -- (--) -- (--) 0 0 0 0 0
17-10-2019 23.2 (17:40) 6.1 (00:00) 14.7 7.22 (14:20) 3.89 (15:10) 0 0 0 0 0
16-10-2019 21.3 (17:20) 6.6 (00:00) 13.9 -- (--) -- (--) 0 0 0 0 0
15-10-2019 18.6 (17:20) 7.4 (00:00) 13 -- (--) -- (--) 0 0 0 0 0
14-10-2019 23.3 (14:40) 11.6 (00:00) 17.4 -- (--) -- (--) 0 0 0 0 0
13-10-2019 29.3 (17:00) 11.2 (00:00) 20.2 -- (--) -- (--) 0 0 0 0 0
12-10-2019 26.9 (17:30) 13.4 (00:00) 20.1 -- (--) -- (--) 0 0 0 0 0
11-10-2019 29.3 (17:10) 14 (00:00) 21.6 -- (--) -- (--) 0 0 0 0 0
10-10-2019 30.7 (16:10) 15.1 (00:00) 22.9 -- (--) -- (--) 0 0 0 0 0
09-10-2019 31.8 (17:30) 12.3 (00:00) 22 -- (--) -- (--) 0 0 0 0 0
08-10-2019 30.8 (16:30) 12.1 (00:00) 21.4 -- (--) -- (--) 0 0 0 0 0
07-10-2019 29.2 (16:50) 11.6 (00:00) 20.4 -- (--) -- (--) 0 0 0 0 0
06-10-2019 29.6 (17:30) 13.6 (00:00) 21.6 -- (--) -- (--) 0 0 0 0 0
05-10-2019 29.1 (17:20) 14 (00:00) 21.6 -- (--) -- (--) 0 0 0 0 0
04-10-2019 30.1 (17:10) 9.3 (00:00) 19.7 -- (--) -- (--) 0 0 0 0 0
18-09-2019 27.9 (16:30) 12.7 (00:00) 20.3 -- (--) -- (--) 0 0 0 0 0
02-10-2019 25.3 (16:20) 13.1 (00:00) 19.2 -- (--) -- (--) 0 0 0 0 0
01-10-2019 29.2 (14:50) 16.9 (00:00) 23.1 -- (--) -- (--) 0 0 0 0 0
30-09-2019 31.9 (17:40) 10.7 (00:00) 21.3 -- (--) -- (--) 0 0 0 0 0
29-09-2019 32.2 (16:20) 12.1 (00:00) 22.2 -- (--) -- (--) 0 0 0 0 0
28-09-2019 31.3 (17:10) 12.5 (00:00) 21.9 -- (--) -- (--) 0 0 0 0 0
27-09-2019 30.5 (16:20) 14.5 (00:00) 22.5 -- (--) -- (--) 0 0 0 0 0
26-09-2019 29.7 (17:30) 10.9 (00:00) 20.3 -- (--) -- (--) 0 0 0 0 0
25-09-2019 26.3 (16:10) 15.3 (00:00) 20.8 -- (--) -- (--) 0 0 0 0 0
24-09-2019 29.1 (16:50) 12.5 (00:00) 20.8 -- (--) -- (--) 0 0 0 0 0
23-09-2019 24.8 (18:20) 11.1 (00:00) 17.9 -- (--) -- (--) 0 0 0 0 0
22-09-2019 22.3 (18:10) 15.9 (00:00) 19.1 -- (--) -- (--) 0 0 0 0 0
19-09-2019 28.5 (14:30) 14.4 (00:00) 21.4 -- (--) -- (--) 0 0 0 0 0

Gráficas

Temp. máximas Temp. mínimas Temp. medias Precipitaciones Rachas de viento máximas Velocidades máximas media en intervalos de 10 minutos

Datos horarios

Fecha y hora oficial Temperatura (ºC) Velocidad del viento (km/h) Dirección del viento Racha (km/h) Dirección de racha Precipitación (mm) Presión (hPa) Tendencia (hPa) Humedad (%)
2019-10-17 23:00:00 16.3 -- -- -- -- 0 943.6 1 61
2019-10-17 22:00:00 16.8 -- -- -- -- 0 943.2 0.9 62
2019-10-17 21:00:00 17.8 -- -- -- -- 0 943 0.7 58
2019-10-17 20:00:00 19.5 -- -- -- -- 0 942.6 0.2 52
2019-10-17 19:00:00 21.1 -- -- -- -- 0 942.3 -0.5 47
2019-10-17 18:00:00 22.9 -- -- -- -- 0 942.3 -1 41
2019-10-17 17:00:00 23 -- -- -- -- 0 942.4 -1.4 40
2019-10-17 16:00:00 22.4 -- -- -- -- 0 942.8 -1.7 38
2019-10-17 15:00:00 20.9 -- -- -- -- 0 943.3 -1.5 38
2019-10-17 14:00:00 19.8 -- -- -- -- 0 943.8 -0.9 39
2019-10-17 13:00:00 18.4 -- -- -- -- 0 944.5 0.2 44
2019-10-17 12:00:00 17.8 -- -- -- -- 0 944.8 1.3 46
2019-10-17 11:00:00 14.9 -- -- -- -- 0 944.7 1.7 49
2019-10-17 10:00:00 10.9 -- -- -- -- 0 944.3 1.8 61
2019-10-17 09:00:00 7.3 -- -- -- -- 0 943.5 1.3 74
2019-10-17 08:00:00 6.5 -- -- -- -- 0 943 0.4 73
2019-10-17 07:00:00 8.8 -- -- -- -- 0 942.5 -0.6 66
2019-10-17 06:00:00 8.4 -- -- -- -- 0 942.2 -1.1 65
2019-10-17 05:00:00 8.4 -- -- -- -- 0 942.6 -0.9 66
2019-10-17 04:00:00 8.6 -- -- -- -- 0 943.1 -0.5 65
2019-10-17 03:00:00 9.2 -- -- -- -- 0 943.3 -0.4 59
2019-10-17 02:00:00 10.6 -- -- -- -- 0 943.5 0.4 55
2019-10-17 01:00:00 11 -- -- -- -- 0 943.6 0.5 53
2019-10-17 00:00:00 12.8 -- -- -- -- 0 943.7 1.1 48
2019-10-16 23:00:00 13 -- -- -- -- 0 943.1 1.1 44
2019-10-16 22:00:00 14.4 -- -- -- -- 0 943.1 1.2 41
2019-10-16 21:00:00 15.2 -- -- -- -- 0 942.6 0.3 37
2019-10-16 20:00:00 17 -- -- -- -- 0 942 -0.5 32
2019-10-16 19:00:00 19.3 -- -- -- -- 0 941.9 -1.2 27
2019-10-16 18:00:00 20.6 -- -- -- -- 0 942.3 -1.6 24
2019-10-16 17:00:00 20.4 -- -- -- -- 0 942.5 -2.1 25
2019-10-16 16:00:00 20.3 -- -- -- -- 0 943.1 -2.2 28
2019-10-16 15:00:00 19.1 -- -- -- -- 0 943.9 -2.1 32
2019-10-16 14:00:00 17.6 -- -- -- -- 0 944.6 -1.3 36
2019-10-16 13:00:00 17.1 -- -- -- -- 0 945.3 -0.2 41
2019-10-16 12:00:00 15 -- -- -- -- 0 946 0.9 49
2019-10-16 11:00:00 12.5 -- -- -- -- 0 945.9 1.2 57
2019-10-16 10:00:00 10 -- -- -- -- 0 945.5 0.9 65
2019-10-16 09:00:00 7.4 -- -- -- -- 0 945.1 0.4 72
2019-10-16 08:00:00 7.1 -- -- -- -- 0 944.7 -0.1 74
2019-10-16 07:00:00 7.4 -- -- -- -- 0 944.6 -0.4 71
2019-10-16 06:00:00 7.2 -- -- -- -- 0 944.7 -0.7 73
2019-10-16 05:00:00 7.7 -- -- -- -- 0 944.8 -0.8 69
2019-10-16 04:00:00 8 -- -- -- -- 0 945 -0.8 66
2019-10-16 03:00:00 8.8 -- -- -- -- 0 945.4 -0.2 62
2019-10-16 02:00:00 9.7 -- -- -- -- 0 945.6 0.2 59
2019-10-16 01:00:00 10.1 -- -- -- -- 0 945.8 0.8 57
2019-10-16 00:00:00 11.1 -- -- -- -- 0 945.6 1 53
2019-10-15 23:00:00 12.3 -- -- -- -- 0 945.4 1.1 49
2019-10-15 22:00:00 11.7 -- -- -- -- 0 945 0.8 49
2019-10-15 21:00:00 13.7 -- -- -- -- 0 944.6 0.6 41
2019-10-15 20:00:00 15.4 -- -- -- -- 0 944.3 0.3 39
2019-10-15 19:00:00 16.7 -- -- -- -- 0 944.2 -0.1 33
2019-10-15 18:00:00 18.3 -- -- -- -- 0 944 -0.8 30
2019-10-15 17:00:00 17.6 -- -- -- -- 0 944 -1.4 31
2019-10-15 16:00:00 18.2 -- -- -- -- 0 944.3 -1.3 31
2019-10-15 15:00:00 17.8 -- -- -- -- 0 944.8 -1.1 34
2019-10-15 14:00:00 16.1 -- -- -- -- 0 945.4 -0.7 39
2019-10-15 13:00:00 15.1 -- -- -- -- 0 945.6 0.1 45
2019-10-15 12:00:00 13.8 -- -- -- -- 0 945.9 1.1 51
2019-10-15 11:00:00 10.4 -- -- -- -- 0 946.1 2.1 85
2019-10-15 10:00:00 8.2 -- -- -- -- 0 945.5 1.8 97
2019-10-15 09:00:00 7.6 -- -- -- -- 0 944.8 1.4 96
2019-10-15 08:00:00 7.7 -- -- -- -- 0 944 0.7 94
2019-10-15 07:00:00 8.5 -- -- -- -- 0 943.7 0.6 93
2019-10-15 06:00:00 8.8 -- -- -- -- 0 943.4 0.3 91
2019-10-15 05:00:00 9.4 -- -- -- -- 0 943.3 0.5 90
2019-10-15 04:00:00 9.7 -- -- -- -- 0 943.1 0.8 90
2019-10-15 03:00:00 10.1 -- -- -- -- 0 943.1 0.9 88
2019-10-15 02:00:00 10.6 -- -- -- -- 0 942.8 1 86
2019-10-15 01:00:00 10.9 -- -- -- -- 0 942.3 1.2 82
2019-10-15 00:00:00 11.6 -- -- -- -- 0 942.2 1.9 80
2019-10-14 23:00:00 12.4 -- -- -- -- 0 941.8 3.3 79
2019-10-14 22:00:00 13.6 -- -- -- -- 0 941.1 3.2 69
2019-10-14 21:00:00 15.2 -- -- -- -- 0 940.3 2.8 64
2019-10-14 20:00:00 18.9 -- -- -- -- 0 938.5 1 39
2019-10-14 19:00:00 20.1 -- -- -- -- 0 937.9 0.5 41
2019-10-14 18:00:00 21.5 -- -- -- -- 0 937.5 -0.2 40
2019-10-14 17:00:00 21.2 -- -- -- -- 0 937.5 -0.5 44
2019-10-14 16:00:00 21.9 -- -- -- -- 0 937.4 -1.4 44
2019-10-14 15:00:00 21.6 -- -- -- -- 0 937.7 -1.2 47
2019-10-14 14:00:00 22.3 -- -- -- -- 0 938 -0.8 46
2019-10-14 13:00:00 21.5 -- -- -- -- 0 938.8 0.1 49
2019-10-14 12:00:00 20.8 -- -- -- -- 0 938.9 0.8 51
2019-10-14 11:00:00 19.7 -- -- -- -- 0 938.8 1.9 61
2019-10-14 10:00:00 19.2 -- -- -- -- 0 938.7 2.4 64
2019-10-14 09:00:00 20.6 -- -- -- -- 0 938.1 2 45
2019-10-14 08:00:00 20.6 -- -- -- -- 0 936.9 1.2 39
2019-10-14 07:00:00 20.5 -- -- -- -- 0 936.3 0 39
2019-10-14 06:00:00 20.3 -- -- -- -- 0 936.1 -0.8 39
2019-10-14 05:00:00 20.3 -- -- -- -- 0 935.7 -1.9 38
2019-10-14 04:00:00 20.5 -- -- -- -- 0 936.3 -2.3 39
2019-10-14 03:00:00 20.9 -- -- -- -- 0 936.9 -2.4 38
2019-10-14 02:00:00 20.5 -- -- -- -- 0 937.6 -1.7 37
2019-10-14 01:00:00 19.1 -- -- -- -- 0 938.6 -0.7 38
2019-10-14 00:00:00 19.1 -- -- -- -- 0 939.3 0 37
2019-10-13 23:00:00 18.7 -- -- -- -- 0 939.3 0.2 37
2019-10-13 22:00:00 19.6 -- -- -- -- 0 939.3 0.2 34
2019-10-13 21:00:00 21.7 -- -- -- -- 0 939.3 0.1 30
2019-10-13 20:00:00 25.1 -- -- -- -- 0 939.1 -0.2 23
2019-10-13 19:00:00 26.9 -- -- -- -- 0 939.1 -0.4 21
2019-10-13 18:00:00 28.4 -- -- -- -- 0 939.2 -0.8 19
2019-10-13 17:00:00 29.2 -- -- -- -- 0 939.3 -1.6 18
2019-10-13 16:00:00 28.9 -- -- -- -- 0 939.5 -2.1 19
2019-10-13 15:00:00 27.6 -- -- -- -- 0 940 -2 24
2019-10-13 14:00:00 25.9 -- -- -- -- 0 940.9 -1.1 38
2019-10-13 13:00:00 23.9 -- -- -- -- 0 941.6 0.3 50
2019-10-13 12:00:00 22.5 -- -- -- -- 0 942 1 60
2019-10-13 11:00:00 20.7 -- -- -- -- 0 942 1.7 69
2019-10-13 10:00:00 16.1 -- -- -- -- 0 941.3 1 82
2019-10-13 09:00:00 12.1 -- -- -- -- 0 941 0.8 94
2019-10-13 08:00:00 11.6 -- -- -- -- 0 940.3 0.1 94
2019-10-13 07:00:00 11.8 -- -- -- -- 0 940.3 -0.1 92
2019-10-13 06:00:00 12.1 -- -- -- -- 0 940.2 -0.5 91
2019-10-13 05:00:00 12.8 -- -- -- -- 0 940.2 -0.3 90
2019-10-13 04:00:00 13.5 -- -- -- -- 0 940.4 -0.4 90
2019-10-13 03:00:00 13.8 -- -- -- -- 0 940.7 -0.1 88
2019-10-13 02:00:00 14.5 -- -- -- -- 0 940.5 -0.1 85
2019-10-13 01:00:00 15.4 -- -- -- -- 0 940.8 0.6 81
2019-10-13 00:00:00 16.6 -- -- -- -- 0 940.8 1 75
2019-10-12 23:00:00 17.8 -- -- -- -- 0 940.6 1.1 69
2019-10-12 22:00:00 19.2 -- -- -- -- 0 940.2 0.7 63
2019-10-12 21:00:00 20.4 -- -- -- -- 0 939.8 0.1 59
2019-10-12 20:00:00 22.6 -- -- -- -- 0 939.5 -0.6 51
2019-10-12 19:00:00 25.2 -- -- -- -- 0 939.5 -1 38
2019-10-12 18:00:00 26.5 -- -- -- -- 0 939.7 -1.4 35
2019-10-12 17:00:00 26.2 -- -- -- -- 0 940.1 -1.9 35
2019-10-12 16:00:00 25.5 -- -- -- -- 0 940.5 -2.1 38
2019-10-12 15:00:00 25.2 -- -- -- -- 0 941.1 -1.7 41
2019-10-12 14:00:00 24 -- -- -- -- 0 942 -0.4 49
2019-10-12 13:00:00 22.4 -- -- -- -- 0 942.6 0.4 59
2019-10-12 12:00:00 20.6 -- -- -- -- 0 942.8 1.2 66
2019-10-12 11:00:00 18.2 -- -- -- -- 0 942.4 0.5 77
2019-10-12 10:00:00 15.4 -- -- -- -- 0 942.2 0.5 85
2019-10-12 09:00:00 13.4 -- -- -- -- 0 941.6 -0.2 87
2019-10-12 08:00:00 14.1 -- -- -- -- 0 941.9 0.2 85
2019-10-12 07:00:00 14.9 -- -- -- -- 0 941.7 -0.6 81
2019-10-12 06:00:00 15.6 -- -- -- -- 0 941.8 -1 83
2019-10-12 05:00:00 16.4 -- -- -- -- 0 941.7 -1.1 79
2019-10-12 04:00:00 16.9 -- -- -- -- 0 942.3 -0.4 79
2019-10-12 03:00:00 17.7 -- -- -- -- 0 942.8 0 67
2019-10-12 02:00:00 19.8 -- -- -- -- 0 942.8 0.3 50
2019-10-12 01:00:00 20.2 -- -- -- -- 0 942.7 0.3 46
2019-10-12 00:00:00 21.2 -- -- -- -- 0 942.8 0.8 43
2019-10-11 23:00:00 22.6 -- -- -- -- 0 942.5 0.8 38
2019-10-11 22:00:00 21.4 -- -- -- -- 0 942.4 0.7 50
2019-10-11 21:00:00 22.6 -- -- -- -- 0 942 0.3 43
2019-10-11 20:00:00 24.3 -- -- -- -- 0 941.7 -0.4 36
2019-10-11 19:00:00 27.1 -- -- -- -- 0 941.7 -0.7 34
2019-10-11 18:00:00 28.4 -- -- -- -- 0 941.7 -1.4 30
2019-10-11 17:00:00 29.1 -- -- -- -- 0 942.1 -2 32
2019-10-11 16:00:00 27.8 -- -- -- -- 0 942.4 -2.5 35
2019-10-11 15:00:00 27.3 -- -- -- -- 0 943.1 -2.2 36
2019-10-11 14:00:00 26.3 -- -- -- -- 0 944.1 -1.4 41
2019-10-11 13:00:00 24.7 -- -- -- -- 0 944.9 -0.1 47
2019-10-11 12:00:00 22.1 -- -- -- -- 0 945.3 0.9 58
2019-10-11 11:00:00 19.2 -- -- -- -- 0 945.5 1.5 72
2019-10-11 10:00:00 16.3 -- -- -- -- 0 945 1.1 85
2019-10-11 09:00:00 14.6 -- -- -- -- 0 944.4 0.7 92
2019-10-11 08:00:00 14.4 -- -- -- -- 0 944 0.1 92
2019-10-11 07:00:00 14.4 -- -- -- -- 0 943.9 0 92
2019-10-11 06:00:00 14.7 -- -- -- -- 0 943.7 -0.2 91
2019-10-11 05:00:00 14.9 -- -- -- -- 0 943.9 -0.1 91
2019-10-11 04:00:00 15.6 -- -- -- -- 0 943.9 -0.1 89
2019-10-11 03:00:00 16.4 -- -- -- -- 0 943.9 0 87
2019-10-11 02:00:00 17.1 -- -- -- -- 0 944 0.4 84
2019-10-11 01:00:00 17.9 -- -- -- -- 0 944 0.8 78
2019-10-11 00:00:00 18.6 -- -- -- -- 0 943.9 1 74
2019-10-10 23:00:00 19.4 -- -- -- -- 0 943.6 1.1 71
2019-10-10 22:00:00 20.6 -- -- -- -- 0 943.2 0.7 66
2019-10-10 21:00:00 22.2 -- -- -- -- 0 942.9 0.7 60
2019-10-10 20:00:00 24 -- -- -- -- 0 942.5 0.3 53
2019-10-10 19:00:00 26.1 -- -- -- -- 0 942.5 0 44
2019-10-10 18:00:00 27.4 -- -- -- -- 0 942.2 -0.6 42
2019-10-10 17:00:00 28.6 -- -- -- -- 0 942.2 -1.2 39
2019-10-10 16:00:00 30.6 -- -- -- -- 0 942.5 -1.3 29
2019-10-10 15:00:00 30 -- -- -- -- 0 942.8 -1.3 31
2019-10-10 14:00:00 28 -- -- -- -- 0 943.4 -0.6 36
2019-10-10 13:00:00 26.6 -- -- -- -- 0 943.8 0.1 44
2019-10-10 12:00:00 24.2 -- -- -- -- 0 944.1 1 55
2019-10-10 11:00:00 21.3 -- -- -- -- 0 944 1.2 67
2019-10-10 10:00:00 18.1 -- -- -- -- 0 943.7 1.3 82
2019-10-10 09:00:00 15.6 -- -- -- -- 0 943.1 1 92
2019-10-10 08:00:00 15.1 -- -- -- -- 0 942.8 0.6 93
2019-10-10 07:00:00 15.9 -- -- -- -- 0 942.4 0.3 91
2019-10-10 06:00:00 16.2 -- -- -- -- 0 942.1 -0.1 92
2019-10-10 05:00:00 16.2 -- -- -- -- 0 942.2 0 91
2019-10-10 04:00:00 16.4 -- -- -- -- 0 942.1 0 90
2019-10-10 03:00:00 16.9 -- -- -- -- 0 942.2 0.4 87
2019-10-10 02:00:00 17.3 -- -- -- -- 0 942.2 0.9 78
2019-10-10 01:00:00 16.5 -- -- -- -- 0 942.1 1.2 59
2019-10-10 00:00:00 18 -- -- -- -- 0 941.8 1.3 52
2019-10-09 23:00:00 19.2 -- -- -- -- 0 941.3 1.2 47
2019-10-09 22:00:00 19.7 -- -- -- -- 0 940.9 0.9 46
2019-10-09 21:00:00 23.6 -- -- -- -- 0 940.5 0.7 35
2019-10-09 20:00:00 26.3 -- -- -- -- 0 940.1 0.1 29
2019-10-09 19:00:00 29.7 -- -- -- -- 0 940 -0.4 23
2019-10-09 18:00:00 31.2 -- -- -- -- 0 939.8 -0.9 21
2019-10-09 17:00:00 31.7 -- -- -- -- 0 940 -1.2 22
2019-10-09 16:00:00 31.3 -- -- -- -- 0 940.4 -1.3 22
2019-10-09 15:00:00 30.2 -- -- -- -- 0 940.7 -1.7 25
2019-10-09 14:00:00 28.7 -- -- -- -- 0 941.2 -0.8 27
2019-10-09 13:00:00 26.2 -- -- -- -- 0 941.7 -0.3 33
2019-10-09 12:00:00 25.2 -- -- -- -- 0 942.4 0.8 39
2019-10-09 11:00:00 22.2 -- -- -- -- 0 942 1.1 47
2019-10-09 10:00:00 17 -- -- -- -- 0 942 1.2 67
2019-10-09 09:00:00 13.6 -- -- -- -- 0 941.6 0.8 79
2019-10-09 08:00:00 12.4 -- -- -- -- 0 940.9 0 82
2019-10-09 07:00:00 12.4 -- -- -- -- 0 940.8 -0.3 84
2019-10-09 06:00:00 13.1 -- -- -- -- 0 940.8 -0.7 83
2019-10-09 05:00:00 13.8 -- -- -- -- 0 940.9 -0.8 80
2019-10-09 04:00:00 14.3 -- -- -- -- 0 941.1 -0.6 77
2019-10-09 03:00:00 14.8 -- -- -- -- 0 941.5 -0.2 71
2019-10-09 02:00:00 18.3 -- -- -- -- 0 941.7 0.2 62
2019-10-09 01:00:00 20.1 -- -- -- -- 0 941.7 0.3 59
2019-10-09 00:00:00 18.9 -- -- -- -- 0 941.7 0.3 54
2019-10-08 23:00:00 20.4 -- -- -- -- 0 941.5 0.3 46
2019-10-08 22:00:00 21.2 -- -- -- -- 0 941.4 0.4 42
2019-10-08 21:00:00 23.1 -- -- -- -- 0 941.4 0.3 40
2019-10-08 20:00:00 25.6 -- -- -- -- 0 941.2 -0.2 33
2019-10-08 19:00:00 29.1 -- -- -- -- 0 941 -1.1 27
2019-10-08 18:00:00 29.7 -- -- -- -- 0 941.1 -1.2 26
2019-10-08 17:00:00 30 -- -- -- -- 0 941.4 -1.5 26
2019-10-08 16:00:00 30.2 -- -- -- -- 0 942.1 -1.5 26
2019-10-08 15:00:00 29.4 -- -- -- -- 0 942.3 -1.7 28
2019-10-08 14:00:00 28.5 -- -- -- -- 0 942.9 -1.5 30
2019-10-08 13:00:00 26.5 -- -- -- -- 0 943.6 -0.4 36
2019-10-08 12:00:00 22.7 -- -- -- -- 0 944 0.2 43
2019-10-08 11:00:00 19 -- -- -- -- 0 944.4 0.7 53
2019-10-08 10:00:00 15.4 -- -- -- -- 0 944 0.8 65
2019-10-08 09:00:00 12.1 -- -- -- -- 0 943.8 0.8 74
2019-10-08 08:00:00 12.7 -- -- -- -- 0 943.7 0.5 73
2019-10-08 07:00:00 12.9 -- -- -- -- 0 943.2 0 71
2019-10-08 06:00:00 12.4 -- -- -- -- 0 943 -0.5 69
2019-10-08 05:00:00 13 -- -- -- -- 0 943.2 -0.2 66
2019-10-08 04:00:00 13.3 -- -- -- -- 0 943.2 -0.4 66
2019-10-08 03:00:00 15.1 -- -- -- -- 0 943.5 -0.1 60
2019-10-08 02:00:00 16.8 -- -- -- -- 0 943.4 0.1 54
2019-10-08 01:00:00 17.1 -- -- -- -- 0 943.6 0.5 52
2019-10-08 00:00:00 18 -- -- -- -- 0 943.6 0.8 49
2019-10-07 23:00:00 19.8 -- -- -- -- 0 943.3 0.6 45
2019-10-07 22:00:00 21.3 -- -- -- -- 0 943.1 0.6 40
2019-10-07 21:00:00 22.5 -- -- -- -- 0 942.8 0.5 38
2019-10-07 20:00:00 24.7 -- -- -- -- 0 942.7 0.1 32
2019-10-07 19:00:00 27.6 -- -- -- -- 0 942.5 -0.4 27
2019-10-07 18:00:00 28.4 -- -- -- -- 0 942.3 -0.8 23
2019-10-07 17:00:00 28.2 -- -- -- -- 0 942.6 -1.2 24
2019-10-07 16:00:00 28.6 -- -- -- -- 0 942.9 -1.3 23
2019-10-07 15:00:00 27.7 -- -- -- -- 0 943.1 -1.5 23
2019-10-07 14:00:00 26.2 -- -- -- -- 0 943.8 -0.9 27
2019-10-07 13:00:00 24.9 -- -- -- -- 0 944.2 0 31
2019-10-07 12:00:00 22.3 -- -- -- -- 0 944.6 1 37
2019-10-07 11:00:00 20.4 -- -- -- -- 0 944.7 1.3 41
2019-10-07 10:00:00 17.3 -- -- -- -- 0 944.2 1.1 49
2019-10-07 09:00:00 14.2 -- -- -- -- 0 943.6 0.7 58
2019-10-07 08:00:00 11.8 -- -- -- -- 0 943.4 0.6 66
2019-10-07 07:00:00 12.7 -- -- -- -- 0 943.1 -0.1 62
2019-10-07 06:00:00 14 -- -- -- -- 0 942.9 -0.8 56
2019-10-07 05:00:00 14.3 -- -- -- -- 0 942.8 -0.8 56
2019-10-07 04:00:00 15.5 -- -- -- -- 0 943.2 -0.8 52
2019-10-07 03:00:00 16.1 -- -- -- -- 0 943.7 0 50
2019-10-07 02:00:00 17.3 -- -- -- -- 0 943.6 0.1 46
2019-10-07 01:00:00 17.7 -- -- -- -- 0 944 0.8 44
2019-10-07 00:00:00 18.3 -- -- -- -- 0 943.7 1 39
2019-10-06 23:00:00 19.2 -- -- -- -- 0 943.5 1.2 39
2019-10-06 22:00:00 19.9 -- -- -- -- 0 943.2 1 40
2019-10-06 21:00:00 22.2 -- -- -- -- 0 942.7 0.4 31
2019-10-06 20:00:00 24.9 -- -- -- -- 0 942.3 -0.3 25
2019-10-06 19:00:00 28 -- -- -- -- 0 942.2 -0.9 21
2019-10-06 18:00:00 29.2 -- -- -- -- 0 942.3 -1.1 21
2019-10-06 17:00:00 28.3 -- -- -- -- 0 942.6 -1.7 24
2019-10-06 16:00:00 27.9 -- -- -- -- 0 943.1 -1.5 26
2019-10-06 15:00:00 26.9 -- -- -- -- 0 943.4 -1.5 30
2019-10-06 14:00:00 26.5 -- -- -- -- 0 944.3 -0.2 32
2019-10-06 13:00:00 25.4 -- -- -- -- 0 944.6 0.5 36
2019-10-06 12:00:00 23.1 -- -- -- -- 0 944.9 1.6 41
2019-10-06 11:00:00 20.5 -- -- -- -- 0 944.5 1.7 47
2019-10-06 10:00:00 16.8 -- -- -- -- 0 944.1 1.4 60
2019-10-06 09:00:00 14.6 -- -- -- -- 0 943.3 0.9 65
2019-10-06 08:00:00 13.7 -- -- -- -- 0 942.8 0.5 67
2019-10-06 07:00:00 14.2 -- -- -- -- 0 942.7 0.1 66
2019-10-06 06:00:00 15 -- -- -- -- 0 942.4 -0.4 63
2019-10-06 05:00:00 15.8 -- -- -- -- 0 942.3 0 61
2019-10-06 04:00:00 16.5 -- -- -- -- 0 942.6 0.2 58
2019-10-06 03:00:00 16.7 -- -- -- -- 0 942.8 0.5 56
2019-10-06 02:00:00 17.1 -- -- -- -- 0 942.3 0.2 55
2019-10-06 01:00:00 16.9 -- -- -- -- 0 942.4 0.8 54
2019-10-06 00:00:00 16.6 -- -- -- -- 0 942.3 1.2 49
2019-10-05 23:00:00 18.3 -- -- -- -- 0 942.1 1.4 45
2019-10-05 22:00:00 19.8 -- -- -- -- 0 941.6 1.2 38
2019-10-05 21:00:00 21.6 -- -- -- -- 0 941.1 0.8 35
2019-10-05 20:00:00 24.7 -- -- -- -- 0 940.7 0.3 28
2019-10-05 19:00:00 28.2 -- -- -- -- 0 940.4 -0.2 22
2019-10-05 18:00:00 28.5 -- -- -- -- 0 940.3 -0.7 24
2019-10-05 17:00:00 28.5 -- -- -- -- 0 940.4 -1.2 25
2019-10-05 16:00:00 28.7 -- -- -- -- 0 940.6 -1.4 26
2019-10-05 15:00:00 27.4 -- -- -- -- 0 941 -1.1 28
2019-10-05 14:00:00 25.9 -- -- -- -- 0 941.6 -0.4 33
2019-10-05 13:00:00 24.1 -- -- -- -- 0 942 0.3 38
2019-10-05 12:00:00 23 -- -- -- -- 0 942.1 0.8 41
2019-10-05 11:00:00 20.7 -- -- -- -- 0 942 1.3 45
2019-10-05 10:00:00 17.4 -- -- -- -- 0 941.7 1.1 49
2019-10-05 09:00:00 14.7 -- -- -- -- 0 941.3 0.5 54
2019-10-05 08:00:00 14.1 -- -- -- -- 0 940.7 0 55
2019-10-05 07:00:00 14.4 -- -- -- -- 0 940.6 -0.4 54
2019-10-05 06:00:00 14.6 -- -- -- -- 0 940.8 -0.5 54
2019-10-05 05:00:00 15.2 -- -- -- -- 0 940.7 -0.4 51
2019-10-05 04:00:00 15.6 -- -- -- -- 0 941 -0.4 52
2019-10-05 03:00:00 17.1 -- -- -- -- 0 941.3 0.2 46
2019-10-05 02:00:00 18.1 -- -- -- -- 0 941.1 0.5 41
2019-10-05 01:00:00 19 -- -- -- -- 0 941.4 0.9 39
2019-10-05 00:00:00 19.5 -- -- -- -- 0 941.1 0.8 36
2019-10-04 23:00:00 20.6 -- -- -- -- 0 940.6 0.5 34
2019-10-04 22:00:00 21.5 -- -- -- -- 0 940.5 0.5 31
2019-10-04 21:00:00 22.5 -- -- -- -- 0 940.3 0.1 29
2019-10-04 20:00:00 25.4 -- -- -- -- 0 940.1 -0.1 24
2019-10-04 19:00:00 28.7 -- -- -- -- 0 940 -0.8 18
2019-10-04 18:00:00 29.7 -- -- -- -- 0 940.2 -1.2 17
2019-10-04 17:00:00 29.9 -- -- -- -- 0 940.2 -2 18
2019-10-04 16:00:00 29.4 -- -- -- -- 0 940.8 -2.2 19
2019-10-04 15:00:00 28.4 -- -- -- -- 0 941.4 -2.1 20
2019-10-04 14:00:00 26.8 -- -- -- -- 0 942.2 -1.5 24
2019-10-04 13:00:00 24.6 -- -- -- -- 0 943 -0.4 29
2019-10-04 12:00:00 23.2 -- -- -- -- 0 943.5 0.5 35
2019-10-04 11:00:00 20.3 -- -- -- -- 0 943.7 0.8 42
2019-10-04 10:00:00 16.8 -- -- -- -- 0 943.4 0.7 53
2019-10-04 09:00:00 11.9 -- -- -- -- 0 943 0.2 71
2019-10-04 08:00:00 9.4 -- -- -- -- 0 942.9 0.3 77
2019-10-04 07:00:00 11.9 -- -- -- -- 0 942.7 -0.1 66
2019-10-04 06:00:00 13.3 -- -- -- -- 0 942.8 -0.3 63
2019-10-04 05:00:00 14.1 -- -- -- -- 0 942.6 -0.6 59
2019-10-04 04:00:00 14.3 -- -- -- -- 0 942.8 -0.4 58
2019-10-04 03:00:00 14.1 -- -- -- -- 0 943.1 -0.1 57
2019-10-04 02:00:00 16 -- -- -- -- 0 943.2 0.1 46
2019-10-04 01:00:00 16.5 -- -- -- -- 0 943.2 0.2 43
2019-10-04 00:00:00 15.9 -- -- -- -- 0 943.2 0.3 45
2019-10-03 23:00:00 17 -- -- -- -- 0 943.1 0.5 43
2019-10-03 22:00:00 18.4 -- -- -- -- 0 943 0.9 39
2019-10-03 21:00:00 19.8 -- -- -- -- 0 942.9 0.8 36
2019-10-03 20:00:00 23.2 -- -- -- -- 0 942.6 0.2 29
2019-10-03 19:00:00 25.9 -- -- -- -- 0 942.1 -0.7 24
2019-10-03 18:00:00 26.7 -- -- -- -- 0 942.1 -1 22
2019-10-03 17:00:00 26.8 -- -- -- -- 0 942.4 -1.3 22
2019-10-03 16:00:00 26.1 -- -- -- -- 0 942.8 -1.2 22
2019-10-03 15:00:00 24.7 -- -- -- -- 0 943.1 -1.3 26
2019-10-03 14:00:00 23.4 -- -- -- -- 0 943.7 -0.7 29
2019-10-03 13:00:00 21.7 -- -- -- -- 0 944 -0.1 34
2019-10-03 12:00:00 19.7 -- -- -- -- 0 944.4 0.7 40
2019-10-03 11:00:00 18 -- -- -- -- 0 944.4 1 45
2019-10-03 10:00:00 14.7 -- -- -- -- 0 944.1 0.9 56
2019-10-03 09:00:00 11.4 -- -- -- -- 0 943.7 0.7 68
2019-10-03 08:00:00 10.7 -- -- -- -- 0 943.4 0.4 69
2019-10-03 07:00:00 10 -- -- -- -- 0 943.2 0.1 71
2019-10-03 06:00:00 11 -- -- -- -- 0 943 -0.2 68
2019-10-03 05:00:00 11.3 -- -- -- -- 0 943 -0.3 67
2019-10-03 04:00:00 10.9 -- -- -- -- 0 943.1 -0.4 61
2019-10-03 03:00:00 11.2 -- -- -- -- 0 943.2 -0.3 59
2019-10-03 02:00:00 12 -- -- -- -- 0 943.3 0 55
2019-10-03 01:00:00 12.3 -- -- -- -- 0 943.5 0.6 53
2019-10-03 00:00:00 14.2 -- -- -- -- 0 943.5 1 45
2019-10-02 23:00:00 15.8 -- -- -- -- 0 943.3 1.2 40
2019-10-02 22:00:00 17.3 -- -- -- -- 0 942.9 1.1 36
2019-10-02 21:00:00 18.2 -- -- -- -- 0 942.5 0.7 35
2019-10-02 20:00:00 20.9 -- -- -- -- 0 942.1 0.3 28
2019-10-02 19:00:00 23.5 -- -- -- -- 0 941.8 0.1 24
2019-10-02 18:00:00 24.6 -- -- -- -- 0 941.8 -0.3 24
2019-10-02 17:00:00 24.5 -- -- -- -- 0 941.8 -0.2 24
2019-10-02 16:00:00 24.6 -- -- -- -- 0 941.7 -0.8 27
2019-10-02 15:00:00 23.9 -- -- -- -- 0 942.1 -0.5 30
2019-10-02 14:00:00 23.3 -- -- -- -- 0 942 -0.4 31
2019-10-02 13:00:00 21.9 -- -- -- -- 0 942.5 0.3 35
2019-10-02 12:00:00 20.5 -- -- -- -- 0 942.6 0.7 41
2019-10-02 11:00:00 18.7 -- -- -- -- 0 942.4 1.3 50
2019-10-02 10:00:00 16.7 -- -- -- -- 0 942.2 1.1 60
2019-10-02 09:00:00 13.9 -- -- -- -- 0 941.9 1.1 70
2019-10-02 08:00:00 13.6 -- -- -- -- 0 941.1 0.4 69
2019-10-02 07:00:00 14.5 -- -- -- -- 0 941.1 0.2 66
2019-10-02 06:00:00 15.1 -- -- -- -- 0 940.8 -0.2 65
2019-10-02 05:00:00 15.5 -- -- -- -- 0 940.7 -0.2 63
2019-10-02 04:00:00 16.2 -- -- -- -- 0 940.9 -0.1 62
2019-10-02 03:00:00 16.9 -- -- -- -- 0 941 0.4 59
2019-10-02 02:00:00 17.2 -- -- -- -- 0 940.9 0.7 58
2019-10-02 01:00:00 18 -- -- -- -- 0 941 1.4 55
2019-10-02 00:00:00 18.9 -- -- -- -- 0 940.6 1.1 52
2019-10-01 23:00:00 20 -- -- -- -- 0 940.2 1.6 48
2019-10-01 22:00:00 21.7 -- -- -- -- 0 939.6 1.5 45
2019-10-01 21:00:00 23 -- -- -- -- 0 939.5 1.3 35
2019-10-01 20:00:00 24.9 -- -- -- -- 0 938.6 0.7 23
2019-10-01 19:00:00 27.1 -- -- -- -- 0 938.1 -0.1 18
2019-10-01 18:00:00 28.4 -- -- -- -- 0 938.2 -0.2 15
2019-10-01 17:00:00 28.9 -- -- -- -- 0 937.9 -1.2 21
2019-10-01 16:00:00 28.8 -- -- -- -- 0 938.2 -1.5 20
2019-10-01 15:00:00 28.4 -- -- -- -- 0 938.4 -1.7 19
2019-10-01 14:00:00 28.3 -- -- -- -- 0 939.1 -1 23
2019-10-01 13:00:00 26.8 -- -- -- -- 0 939.7 0.2 25
2019-10-01 12:00:00 25.1 -- -- -- -- 0 940.1 0.9 29
2019-10-01 11:00:00 23.2 -- -- -- -- 0 940.1 1.3 34
2019-10-01 10:00:00 20.5 -- -- -- -- 0 939.5 0.9 43
2019-10-01 09:00:00 18.4 -- -- -- -- 0 939.2 0.4 49
2019-10-01 08:00:00 17.6 -- -- -- -- 0 938.8 -0.3 52
2019-10-01 07:00:00 17.2 -- -- -- -- 0 938.6 -1.1 51
2019-10-01 06:00:00 17.3 -- -- -- -- 0 938.8 -1.5 49
2019-10-01 05:00:00 17.4 -- -- -- -- 0 939.1 -1.3 48
2019-10-01 04:00:00 18 -- -- -- -- 0 939.7 -0.7 47
2019-10-01 03:00:00 19.6 -- -- -- -- 0 940.3 -0.3 41
2019-10-01 02:00:00 20.2 -- -- -- -- 0 940.4 -0.2 40
2019-10-01 01:00:00 20.8 -- -- -- -- 0 940.4 0 38
2019-10-01 00:00:00 20.8 -- -- -- -- 0 940.6 0.4 38
2019-09-30 23:00:00 21.7 -- -- -- -- 0 940.6 0.5 32
2019-09-30 22:00:00 21.6 -- -- -- -- 0 940.4 0.4 32
2019-09-30 21:00:00 24 -- -- -- -- 0 940.2 0 25
2019-09-30 20:00:00 27.3 -- -- -- -- 0 940.1 -0.5 19
2019-09-30 19:00:00 30.7 -- -- -- -- 0 940 -1.1 15
2019-09-30 18:00:00 31.3 -- -- -- -- 0 940.2 -1.4 14
2019-09-30 17:00:00 31.4 -- -- -- -- 0 940.6 -1.9 14
2019-09-30 16:00:00 31.4 -- -- -- -- 0 941.1 -1.9 16
2019-09-30 15:00:00 30.6 -- -- -- -- 0 941.6 -1.7 17
2019-09-30 14:00:00 28.8 -- -- -- -- 0 942.5 -0.7 22
2019-09-30 13:00:00 26.5 -- -- -- -- 0 943 -0.2 26
2019-09-30 12:00:00 24.8 -- -- -- -- 0 943.3 0.4 32
2019-09-30 11:00:00 21.2 -- -- -- -- 0 943.2 0.5 43
2019-09-30 10:00:00 17 -- -- -- -- 0 943.2 0.9 58
2019-09-30 09:00:00 12.3 -- -- -- -- 0 942.9 0.7 76
2019-09-30 08:00:00 11.6 -- -- -- -- 0 942.7 0.4 73
2019-09-30 07:00:00 11.9 -- -- -- -- 0 942.3 -0.3 70
2019-09-30 06:00:00 13.4 -- -- -- -- 0 942.2 -0.9 61
2019-09-30 05:00:00 15.9 -- -- -- -- 0 942.3 -0.7 49
2019-09-30 04:00:00 14.6 -- -- -- -- 0 942.6 -0.4 53
2019-09-30 03:00:00 15 -- -- -- -- 0 943.1 0.1 56
2019-09-30 02:00:00 16.2 -- -- -- -- 0 943 0.2 56
2019-09-30 01:00:00 18.7 -- -- -- -- 0 943 0.4 40
2019-09-30 00:00:00 18.7 -- -- -- -- 0 943 1.1 41
2019-09-29 23:00:00 19.5 -- -- -- -- 0 942.8 1 39
2019-09-29 22:00:00 21.3 -- -- -- -- 0 942.6 0.9 36
2019-09-29 21:00:00 24.2 -- -- -- -- 0 941.9 0.1 28
2019-09-29 20:00:00 27.3 -- -- -- -- 0 941.8 -0.4 21
2019-09-29 19:00:00 30.6 -- -- -- -- 0 941.7 -0.8 16
2019-09-29 18:00:00 31.9 -- -- -- -- 0 941.8 -1.3 15
2019-09-29 17:00:00 31.9 -- -- -- -- 0 942.2 -1.6 14
2019-09-29 16:00:00 31.7 -- -- -- -- 0 942.5 -1.4 14
2019-09-29 15:00:00 31.2 -- -- -- -- 0 943.1 -1.1 17
2019-09-29 14:00:00 29.9 -- -- -- -- 0 943.8 -0.5 20
2019-09-29 13:00:00 28.4 -- -- -- -- 0 943.9 0 22
2019-09-29 12:00:00 26.5 -- -- -- -- 0 944.2 0.8 27
2019-09-29 11:00:00 23.5 -- -- -- -- 0 944.3 1.2 33
2019-09-29 10:00:00 19.3 -- -- -- -- 0 943.9 1.2 46
2019-09-29 09:00:00 13.9 -- -- -- -- 0 943.4 0.6 80
2019-09-29 08:00:00 12.1 -- -- -- -- 0 943.1 0.1 86
2019-09-29 07:00:00 12.4 -- -- -- -- 0 942.7 -0.6 85
2019-09-29 06:00:00 13.9 -- -- -- -- 0 942.8 -0.7 70
2019-09-29 05:00:00 14.4 -- -- -- -- 0 943 -0.2 75
2019-09-29 04:00:00 14.3 -- -- -- -- 0 943.3 -0.1 83
2019-09-29 03:00:00 14.6 -- -- -- -- 0 943.5 -0.1 78
2019-09-29 02:00:00 15.9 -- -- -- -- 0 943.2 -0.3 67
2019-09-29 01:00:00 19.1 -- -- -- -- 0 943.4 0.2 50
2019-09-29 00:00:00 20.2 -- -- -- -- 0 943.6 0.6 45
2019-09-28 23:00:00 20.1 -- -- -- -- 0 943.5 0.6 47
2019-09-28 22:00:00 21.1 -- -- -- -- 0 943.2 0.3 44
2019-09-28 21:00:00 22.7 -- -- -- -- 0 943 0 39
2019-09-28 20:00:00 26.7 -- -- -- -- 0 942.9 -0.3 30
2019-09-28 19:00:00 30.1 -- -- -- -- 0 942.9 -0.6 21
2019-09-28 18:00:00 30.1 -- -- -- -- 0 943 -1.1 21
2019-09-28 17:00:00 31 -- -- -- -- 0 943.2 -1.7 20
2019-09-28 16:00:00 30.8 -- -- -- -- 0 943.5 -1.9 21
2019-09-28 15:00:00 29.8 -- -- -- -- 0 944.1 -1.6 21
2019-09-28 14:00:00 28.4 -- -- -- -- 0 944.9 -0.7 26
2019-09-28 13:00:00 26.5 -- -- -- -- 0 945.4 0.2 28
2019-09-28 12:00:00 24.4 -- -- -- -- 0 945.7 0.9 29
2019-09-28 11:00:00 22.6 -- -- -- -- 0 945.6 1.3 32
2019-09-28 10:00:00 18.5 -- -- -- -- 0 945.2 1.2 47
2019-09-28 09:00:00 14.1 -- -- -- -- 0 944.8 0.9 63
2019-09-28 08:00:00 12.7 -- -- -- -- 0 944.3 0.5 70
2019-09-28 07:00:00 12.7 -- -- -- -- 0 944 0 69
2019-09-28 06:00:00 13.9 -- -- -- -- 0 943.9 -0.2 66
2019-09-28 05:00:00 15 -- -- -- -- 0 943.8 -0.4 65
2019-09-28 04:00:00 15.3 -- -- -- -- 0 944 -0.2 64
2019-09-28 03:00:00 16.6 -- -- -- -- 0 944.1 0.1 60
2019-09-28 02:00:00 17.2 -- -- -- -- 0 944.2 0.6 57
2019-09-28 01:00:00 18.3 -- -- -- -- 0 944.2 0.9 53
2019-09-28 00:00:00 20.4 -- -- -- -- 0 944 1.3 46
2019-09-27 23:00:00 20.1 -- -- -- -- 0 943.6 1.1 46
2019-09-27 22:00:00 21.4 -- -- -- -- 0 943.3 0.8 44
2019-09-27 21:00:00 24.1 -- -- -- -- 0 942.7 0.3 32
2019-09-27 20:00:00 26.9 -- -- -- -- 0 942.5 0 26
2019-09-27 19:00:00 29.3 -- -- -- -- 0 942.5 -0.4 22
2019-09-27 18:00:00 29.7 -- -- -- -- 0 942.4 -1 21
2019-09-27 17:00:00 30.1 -- -- -- -- 0 942.5 -1.5 22
2019-09-27 16:00:00 29.8 -- -- -- -- 0 942.9 -1.4 23
2019-09-27 15:00:00 29.2 -- -- -- -- 0 943.4 -1.2 24
2019-09-27 14:00:00 28.4 -- -- -- -- 0 944 -0.6 27
2019-09-27 13:00:00 26.5 -- -- -- -- 0 944.3 -0.1 30
2019-09-27 12:00:00 24.9 -- -- -- -- 0 944.6 0.5 34
2019-09-27 11:00:00 22.9 -- -- -- -- 0 944.6 0.6 43
2019-09-27 10:00:00 18.9 -- -- -- -- 0 944.4 0.8 53
2019-09-27 09:00:00 15.7 -- -- -- -- 0 944.1 0.6 63
2019-09-27 08:00:00 14.7 -- -- -- -- 0 944 0.6 68
2019-09-27 07:00:00 15.8 -- -- -- -- 0 943.6 0 64
2019-09-27 06:00:00 16.4 -- -- -- -- 0 943.5 -0.2 61
2019-09-27 05:00:00 16.7 -- -- -- -- 0 943.4 -0.3 61
2019-09-27 04:00:00 16.7 -- -- -- -- 0 943.6 -0.2 62
2019-09-27 03:00:00 17.8 -- -- -- -- 0 943.7 -0.2 61
2019-09-27 02:00:00 18.8 -- -- -- -- 0 943.7 -0.1 57
2019-09-27 01:00:00 18.1 -- -- -- -- 0 943.8 0.3 57
2019-09-27 00:00:00 19.9 -- -- -- -- 0 943.9 1 50
2019-09-26 23:00:00 20 -- -- -- -- 0 943.8 1.1 50
2019-09-26 22:00:00 21.1 -- -- -- -- 0 943.5 1 49
2019-09-26 21:00:00 22.6 -- -- -- -- 0 942.9 0.5 42
2019-09-26 20:00:00 25.7 -- -- -- -- 0 942.7 0 32
2019-09-26 19:00:00 28.8 -- -- -- -- 0 942.5 -0.4 26
2019-09-26 18:00:00 29.3 -- -- -- -- 0 942.4 -0.9 25
2019-09-26 17:00:00 29.2 -- -- -- -- 0 942.7 -1.3 25
2019-09-26 16:00:00 29.6 -- -- -- -- 0 942.9 -1.5 26
2019-09-26 15:00:00 28.2 -- -- -- -- 0 943.3 -1.6 28
2019-09-26 14:00:00 26.2 -- -- -- -- 0 944 -0.8 33
2019-09-26 13:00:00 25 -- -- -- -- 0 944.4 -0.1 39
2019-09-26 12:00:00 22.4 -- -- -- -- 0 944.9 0.9 50
2019-09-26 11:00:00 19.1 -- -- -- -- 0 944.8 1.2 61
2019-09-26 10:00:00 16 -- -- -- -- 0 944.5 1.2 70
2019-09-26 09:00:00 12.3 -- -- -- -- 0 944 1 85
2019-09-26 08:00:00 11.1 -- -- -- -- 0 943.6 0.7 88
2019-09-26 07:00:00 11.7 -- -- -- -- 0 943.3 0.6 84
2019-09-26 06:00:00 12.2 -- -- -- -- 0 943 0.1 86
2019-09-26 05:00:00 13 -- -- -- -- 0 942.9 -0.2 80
2019-09-26 04:00:00 13.3 -- -- -- -- 0 942.7 -0.5 75
2019-09-26 03:00:00 15.2 -- -- -- -- 0 942.9 -0.1 66
2019-09-26 02:00:00 16.4 -- -- -- -- 0 943.1 0.2 60
2019-09-26 01:00:00 17.3 -- -- -- -- 0 943.2 0.4 57
2019-09-26 00:00:00 17.4 -- -- -- -- 0 943 0.7 60
2019-09-25 23:00:00 18.3 -- -- -- -- 0 942.9 1 59
2019-09-25 22:00:00 18.4 -- -- -- -- 0 942.8 1.1 59
2019-09-25 21:00:00 20.3 -- -- -- -- 0 942.3 0.8 50
2019-09-25 20:00:00 23 -- -- -- -- 0 941.9 0.4 41
2019-09-25 19:00:00 25.3 -- -- -- -- 0 941.7 -0.2 38
2019-09-25 18:00:00 26 -- -- -- -- 0 941.5 -0.9 33
2019-09-25 17:00:00 25.7 -- -- -- -- 0 941.5 -1.3 36
2019-09-25 16:00:00 25.4 -- -- -- -- 0 941.9 -1.3 34
2019-09-25 15:00:00 23.9 -- -- -- -- 0 942.4 -1.1 45
2019-09-25 14:00:00 23.2 -- -- -- -- 0 942.8 -0.8 50
2019-09-25 13:00:00 21.4 -- -- -- -- 0 943.2 0.3 55
2019-09-25 12:00:00 20.8 -- -- -- -- 0 943.5 1 58
2019-09-25 11:00:00 20.1 -- -- -- -- 0 943.6 1.5 63
2019-09-25 10:00:00 18.5 -- -- -- -- 0 942.9 1 76
2019-09-25 09:00:00 16.9 -- -- -- -- 0 942.5 0.6 87
2019-09-25 08:00:00 16.8 -- -- -- -- 0 942.1 0.3 86
2019-09-25 07:00:00 17.4 -- -- -- -- 0 941.9 -0.1 84
2019-09-25 06:00:00 17.3 -- -- -- -- 0 941.9 -0.4 83
2019-09-25 05:00:00 15.5 -- -- -- -- 0 941.8 -0.6 83
2019-09-25 04:00:00 16.6 -- -- -- -- 0 942 -0.4 76
2019-09-25 03:00:00 18.3 -- -- -- -- 0 942.3 -0.3 69
2019-09-25 02:00:00 18.4 -- -- -- -- 0 942.4 -0.2 63
2019-09-25 01:00:00 19.3 -- -- -- -- 0 942.4 -0.1 56
2019-09-25 00:00:00 20.2 -- -- -- -- 0 942.6 0.6 52
2019-09-24 23:00:00 20.9 -- -- -- -- 0 942.6 0.9 48
2019-09-24 22:00:00 22.2 -- -- -- -- 0 942.5 0.9 41
2019-09-24 21:00:00 23.8 -- -- -- -- 0 942 0.3 34
2019-09-24 20:00:00 25.8 -- -- -- -- 0 941.7 -0.5 28
2019-09-24 19:00:00 28.2 -- -- -- -- 0 941.6 -1.2 25
2019-09-24 18:00:00 28.8 -- -- -- -- 0 941.7 -1.8 24
2019-09-24 17:00:00 28.8 -- -- -- -- 0 942.2 -2.2 23
2019-09-24 16:00:00 28.1 -- -- -- -- 0 942.8 -2.1 24
2019-09-24 15:00:00 27 -- -- -- -- 0 943.5 -1.7 28
2019-09-24 14:00:00 25.6 -- -- -- -- 0 944.4 -0.9 30
2019-09-24 13:00:00 24.2 -- -- -- -- 0 944.9 -0.2 33
2019-09-24 12:00:00 22.6 -- -- -- -- 0 945.2 0.6 40
2019-09-24 11:00:00 20.2 -- -- -- -- 0 945.3 1 52
2019-09-24 10:00:00 17.9 -- -- -- -- 0 945.1 1.1 59
2019-09-24 09:00:00 15.4 -- -- -- -- 0 944.6 0.7 68
2019-09-24 08:00:00 13.9 -- -- -- -- 0 944.3 0.3 74
2019-09-24 07:00:00 14.2 -- -- -- -- 0 944 -0.3 72
2019-09-24 06:00:00 13.1 -- -- -- -- 0 943.9 -0.8 80
2019-09-24 05:00:00 12.6 -- -- -- -- 0 944 -0.7 87
2019-09-24 04:00:00 13.2 -- -- -- -- 0 944.3 -0.8 82
2019-09-24 03:00:00 15.4 -- -- -- -- 0 944.7 -0.6 72
2019-09-24 02:00:00 16.1 -- -- -- -- 0 944.7 -0.7 67
2019-09-24 01:00:00 16.4 -- -- -- -- 0 945.1 -0.1 64
2019-09-24 00:00:00 16.2 -- -- -- -- 0 945.3 0.4 67
2019-09-23 23:00:00 16.9 -- -- -- -- 0 945.4 0.8 66
2019-09-23 22:00:00 17.8 -- -- -- -- 0 945.2 0.7 65
2019-09-23 21:00:00 19.3 -- -- -- -- 0 944.9 0.7 57
2019-09-23 20:00:00 21.9 -- -- -- -- 0 944.6 0.1 45
2019-09-23 19:00:00 23.9 -- -- -- -- 0 944.5 -0.2 37
2019-09-23 18:00:00 24.4 -- -- -- -- 0 944.2 -0.7 37
2019-09-23 17:00:00 23.9 -- -- -- -- 0 944.5 -0.8 36
2019-09-23 16:00:00 24.3 -- -- -- -- 0 944.7 -1.1 36
2019-09-23 15:00:00 23.1 -- -- -- -- 0 944.9 -1.1 41
2019-09-23 14:00:00 21.2 -- -- -- -- 0 945.3 -0.8 47
2019-09-23 13:00:00 20.9 -- -- -- -- 0 945.8 0.4 54
2019-09-23 12:00:00 19.1 -- -- -- -- 0 946 1 59
2019-09-23 11:00:00 18.3 -- -- -- -- 0 946.1 1.5 62
2019-09-23 10:00:00 15.2 -- -- -- -- 0 945.4 1.4 77
2019-09-23 09:00:00 12.2 -- -- -- -- 0 945 1.3 83
2019-09-23 08:00:00 11.2 -- -- -- -- 0 944.6 1 88
2019-09-23 07:00:00 12.4 -- -- -- -- 0 944 0.7 84
2019-09-23 06:00:00 12.5 -- -- -- -- 0 943.7 0.1 83
2019-09-23 05:00:00 12.8 -- -- -- -- 0 943.6 0.2 82
2019-09-23 04:00:00 13.5 -- -- -- -- 0 943.3 -0.2 80
2019-09-23 03:00:00 14.1 -- -- -- -- 0 943.6 0.1 79
2019-09-23 02:00:00 14.6 -- -- -- -- 0 943.4 0.4 77
2019-09-23 01:00:00 14.6 -- -- -- -- 0 943.5 1.3 78
2019-09-23 00:00:00 15.9 -- -- -- -- 0 943.5 2.2 72
2019-09-22 23:00:00 16.7 -- -- -- -- 0 943 2.3 68
2019-09-22 22:00:00 17.4 -- -- -- -- 0 942.2 1.5 66
2019-09-22 21:00:00 18.7 -- -- -- -- 0 941.3 1.2 61
2019-09-22 20:00:00 20.2 -- -- -- -- 0 940.7 0.6 54
2019-09-22 19:00:00 21.5 -- -- -- -- 0 940.7 0.6 46
2019-09-22 18:00:00 22.1 -- -- -- -- 0 940.1 0.1 51
2019-09-22 17:00:00 21.6 -- -- -- -- 0 940.1 0.4 58
2019-09-22 16:00:00 21.4 -- -- -- -- 0 940.1 0.1 66
2019-09-22 15:00:00 21.4 -- -- -- -- 0 940 -0.2 74
2019-09-22 14:00:00 21.8 -- -- -- -- 0 939.7 -0.5 71
2019-09-22 13:00:00 20.2 -- -- -- -- 0 940 0.2 75
2019-09-22 12:00:00 19.7 -- -- -- -- 0 940.2 1.1 79
2019-09-22 11:00:00 18.1 -- -- -- -- 0 940.2 1.7 88
2019-09-22 10:00:00 18.2 -- -- -- -- 0 939.8 1.2 83
2019-09-22 09:00:00 17.5 -- -- -- -- 0 939.1 0.7 84
2019-09-22 08:00:00 17.3 -- -- -- -- 0 938.5 0 85
2019-09-22 07:00:00 17 -- -- -- -- 0 938.6 -0.1 86
2019-09-22 06:00:00 17.1 -- -- -- -- 0 938.4 -0.2 84
2019-09-22 05:00:00 17.2 -- -- -- -- 0 938.5 -0.3 82
2019-09-22 04:00:00 17.8 -- -- -- -- 0 938.7 -0.6 79
2019-09-22 03:00:00 17.9 -- -- -- -- 0 938.6 -0.9 78
2019-09-22 02:00:00 18.1 -- -- -- -- 0 938.8 -0.4 78
2019-09-22 01:00:00 18 -- -- -- -- 0 939.3 0.4 81
2019-09-22 00:00:00 18.5 -- -- -- -- 0 939.5 1.3 78
2019-09-21 23:00:00 19.2 -- -- -- -- 0 939.2 1.2 76
2019-09-21 22:00:00 19.5 -- -- -- -- 0 938.9 1.1 75
2019-09-21 21:00:00 20 -- -- -- -- 0 938.2 0.4 72
2019-09-21 20:00:00 21.6 -- -- -- -- 0 938 0 64
2019-09-21 19:00:00 22.6 -- -- -- -- 0 937.8 -0.6 62
2019-09-21 18:00:00 23.4 -- -- -- -- 0 937.8 -0.9 57
2019-09-21 17:00:00 24.2 -- -- -- -- 0 938 -1.1 56
2019-09-21 16:00:00 22.4 -- -- -- -- 0 938.4 -1.2 66
2019-09-21 15:00:00 21.9 -- -- -- -- 0 938.7 -1 66
2019-09-21 14:00:00 22.1 -- -- -- -- 0 939.1 -0.4 64
2019-09-21 13:00:00 21.1 -- -- -- -- 0 939.6 0.1 67
2019-09-21 12:00:00 20.9 -- -- -- -- 0 939.7 0.6 67
2019-09-21 11:00:00 19.6 -- -- -- -- 0 939.5 0.4 75
2019-09-21 10:00:00 18 -- -- -- -- 0 939.5 0.2 87
2019-09-21 09:00:00 16.2 -- -- -- -- 0 939.1 -0.1 92
2019-09-21 08:00:00 16 -- -- -- -- 0 939.1 0.2 94
2019-09-21 07:00:00 16.3 -- -- -- -- 0 939.3 0.2 92
2019-09-21 06:00:00 16.3 -- -- -- -- 0.2 939.2 -0.1 94
2019-09-21 05:00:00 16.1 -- -- -- -- 0 938.9 -0.3 94
2019-09-21 04:00:00 15.8 -- -- -- -- 1.4 939.1 -0.2 94
2019-09-21 03:00:00 18.3 -- -- -- -- 0 939.3 -0.2 91
2019-09-21 02:00:00 17.5 -- -- -- -- 0 939.2 -0.2 95
2019-09-21 01:00:00 17.6 -- -- -- -- 0.2 939.3 0.5 94
2019-09-21 00:00:00 17.8 -- -- -- -- 3.2 939.5 1.1 90
2019-09-20 23:00:00 19 -- -- -- -- 0.6 939.4 0.9 80
2019-09-20 22:00:00 19.8 -- -- -- -- 0 938.8 0.2 60
2019-09-20 21:00:00 19.2 -- -- -- -- 0 938.4 0.1 66
2019-09-20 20:00:00 20.2 -- -- -- -- 0 938.5 0.1 60
2019-09-20 19:00:00 22.5 -- -- -- -- 0 938.6 -0.3 57
2019-09-20 18:00:00 23.1 -- -- -- -- 0 938.3 -1.2 67
2019-09-20 17:00:00 25.1 -- -- -- -- 0 938.4 -1.4 56
2019-09-20 16:00:00 25.7 -- -- -- -- 0 938.9 -1.5 53
2019-09-20 15:00:00 25.6 -- -- -- -- 0 939.5 -1.6 53
2019-09-20 14:00:00 24.8 -- -- -- -- 0 939.8 -1.5 57
2019-09-20 13:00:00 24.2 -- -- -- -- 0 940.4 -0.8 59
2019-09-20 12:00:00 22.7 -- -- -- -- 0 941.1 0.2 65
2019-09-20 11:00:00 21 -- -- -- -- 0 941.3 0.7 70
2019-09-20 10:00:00 18.6 -- -- -- -- 0 941.2 0.7 82
2019-09-20 09:00:00 17 -- -- -- -- 0 940.9 0.3 89
2019-09-20 08:00:00 16.3 -- -- -- -- 0 940.6 -0.1 92
2019-09-20 07:00:00 16.5 -- -- -- -- 0 940.5 -0.4 91
2019-09-20 06:00:00 16.5 -- -- -- -- 0 940.6 -0.5 90
2019-09-20 05:00:00 16.6 -- -- -- -- 0 940.7 -0.4 91
2019-09-20 04:00:00 16.6 -- -- -- -- 0 940.9 -0.1 91
2019-09-20 03:00:00 16.8 -- -- -- -- 0 941.1 0.1 90
2019-09-20 02:00:00 17.6 -- -- -- -- 0 941.1 0.1 85
2019-09-20 01:00:00 19.9 -- -- -- -- 0 941 0.3 70
2019-09-20 00:00:00 20.4 -- -- -- -- 0 941 0.9 54
2019-09-19 23:00:00 19.1 -- -- -- -- 0 941 1.2 77
2019-09-19 22:00:00 20.6 -- -- -- -- 0 940.7 1.1 70
2019-09-19 21:00:00 22.4 -- -- -- -- 0 940.1 0.3 65
2019-09-19 20:00:00 24.3 -- -- -- -- 0 939.8 -0.3 61
2019-09-19 19:00:00 26.1 -- -- -- -- 0 939.6 -0.8 51
2019-09-19 18:00:00 27.1 -- -- -- -- 0 939.8 -1 46
2019-09-19 17:00:00 26.3 -- -- -- -- 0 940.1 -1.3 49
2019-09-19 16:00:00 26.6 -- -- -- -- 0 940.4 -1.5 48
2019-09-19 15:00:00 28.2 -- -- -- -- 0 940.8 -1.5 40
2019-09-19 14:00:00 26.7 -- -- -- -- 0 941.4 -0.9 46
2019-09-19 13:00:00 25.6 -- -- -- -- 0 941.9 -0.1 53
2019-09-19 12:00:00 23.6 -- -- -- -- 0 942.3 0.7 58
2019-09-19 11:00:00 21.3 -- -- -- -- 0 942.3 1.1 71
2019-09-19 10:00:00 18.7 -- -- -- -- 0 942 0.9 82
2019-09-19 09:00:00 15.7 -- -- -- -- 0 941.6 0.6 91
2019-09-19 08:00:00 14.6 -- -- -- -- 0 941.2 0.1 94
2019-09-19 07:00:00 14.6 -- -- -- -- 0 941.1 -0.3 94
2019-09-19 06:00:00 15.2 -- -- -- -- 0 941 -0.5 92
2019-09-19 05:00:00 16.1 -- -- -- -- 0 941.1 -0.3 89
2019-09-19 04:00:00 16.6 -- -- -- -- 0 941.4 -0.2 89
2019-09-19 03:00:00 17 -- -- -- -- 0 941.5 -0.2 86
2019-09-19 02:00:00 17.8 -- -- -- -- 0 941.4 -0.3 80
2019-09-19 01:00:00 18.1 -- -- -- -- 0 941.6 0.1 83
2019-09-19 00:00:00 18.5 -- -- -- -- 0 941.7 0.7 80
2019-09-18 23:00:00 19.6 -- -- -- -- 0 941.7 1.1 76
2019-09-18 22:00:00 20.6 -- -- -- -- 0 941.5 1.2 74
2019-09-18 21:00:00 21.7 -- -- -- -- 0 941 0.5 73
2019-09-18 20:00:00 24.8 -- -- -- -- 0 940.6 -0.1 53
2019-09-18 19:00:00 26.9 -- -- -- -- 0 940.3 -0.8 42
2019-09-18 18:00:00 27.5 -- -- -- -- 0 940.5 -1.1 45
2019-09-18 17:00:00 27.7 -- -- -- -- 0 940.7 -1.2 41
2019-09-18 16:00:00 27.3 -- -- -- -- 0 941.1 -1.1 42
2019-09-18 15:00:00 25.9 -- -- -- -- 0 941.6 -0.6 46
2019-09-18 14:00:00 24.6 -- -- -- -- 0 941.9 -0.3 53
2019-09-18 13:00:00 22.9 -- -- -- -- 0 942.2 0.3 62
2019-09-18 12:00:00 20.9 -- -- -- -- 0 942.2 0.7 63
2019-09-18 11:00:00 18.4 -- -- -- -- 0 942.2 1.2 78
2019-09-18 10:00:00 16.5 -- -- -- -- 0 941.9 1.3 86
2019-09-18 09:00:00 14.1 -- -- -- -- 0 941.5 1.2 94
2019-09-18 08:00:00 13 -- -- -- -- 0 941 0.5 95
2019-09-18 07:00:00 13.2 -- -- -- -- 0 940.6 -0.4 93
2019-09-18 06:00:00 13.9 -- -- -- -- 0 940.3 -1.5 91
2019-09-18 05:00:00 14 -- -- -- -- 0 940.5 -1.7 93
2019-09-18 04:00:00 14.7 -- -- -- -- 0 941 -1 93
2019-09-18 03:00:00 14.9 -- -- -- -- 0 941.8 0.6 92
2019-09-18 02:00:00 15.3 -- -- -- -- 0 942.2 1.5 92
2019-09-18 01:00:00 15.4 -- -- -- -- 0 942 1 89
2019-09-18 00:00:00 17.3 -- -- -- -- 0 941.2 0.2 73